sensor_id;sensor_type;location;lat;lon;timestamp;pressure;altitude;pressure_sealevel;temperature;humidity
41515;BME280;27247;48.020;16.720;2023-04-01T00:02:34;98506.47;;;9.74;78.92
41515;BME280;27247;48.020;16.720;2023-04-01T00:06:44;98507.31;;;9.75;78.51
41515;BME280;27247;48.020;16.720;2023-04-01T00:10:55;98509.34;;;9.73;79.06
41515;BME280;27247;48.020;16.720;2023-04-01T00:15:09;98513.66;;;9.67;78.85
41515;BME280;27247;48.020;16.720;2023-04-01T00:19:20;98509.34;;;9.66;78.60
41515;BME280;27247;48.020;16.720;2023-04-01T00:23:30;98511.41;;;9.71;78.47
41515;BME280;27247;48.020;16.720;2023-04-01T00:27:41;98502.78;;;9.75;78.00
41515;BME280;27247;48.020;16.720;2023-04-01T00:31:51;98505.25;;;9.77;77.45
41515;BME280;27247;48.020;16.720;2023-04-01T00:36:16;98510.78;;;9.75;78.12
41515;BME280;27247;48.020;16.720;2023-04-01T00:44:40;98511.19;;;9.72;77.64
41515;BME280;27247;48.020;16.720;2023-04-01T00:48:52;98501.34;;;9.79;77.74
41515;BME280;27247;48.020;16.720;2023-04-01T00:53:05;98507.31;;;9.88;77.08
41515;BME280;27247;48.020;16.720;2023-04-01T00:57:23;98508.53;;;9.85;77.03
41515;BME280;27247;48.020;16.720;2023-04-01T01:01:35;98505.47;;;9.82;77.95
41515;BME280;27247;48.020;16.720;2023-04-01T01:06:09;98503.22;;;9.85;77.56
41515;BME280;27247;48.020;16.720;2023-04-01T01:10:30;98498.91;;;9.84;77.48
41515;BME280;27247;48.020;16.720;2023-04-01T01:14:51;98508.13;;;9.88;77.10
41515;BME280;27247;48.020;16.720;2023-04-01T01:19:41;98506.09;;;9.97;76.87
41515;BME280;27247;48.020;16.720;2023-04-01T01:24:17;98502.41;;;9.98;77.27
41515;BME280;27247;48.020;16.720;2023-04-01T01:37:17;98488.03;;;9.99;78.17
41515;BME280;27247;48.020;16.720;2023-04-01T01:41:30;98477.97;;;9.95;78.05
41515;BME280;27247;48.020;16.720;2023-04-01T01:45:46;98471.19;;;9.92;77.43
41515;BME280;27247;48.020;16.720;2023-04-01T01:49:59;98464.81;;;9.80;77.52
41515;BME280;27247;48.020;16.720;2023-04-01T01:54:13;98467.91;;;9.77;78.09
41515;BME280;27247;48.020;16.720;2023-04-01T01:58:28;98459.47;;;9.67;78.21
41515;BME280;27247;48.020;16.720;2023-04-01T02:02:42;98454.34;;;9.58;79.25
41515;BME280;27247;48.020;16.720;2023-04-01T02:07:02;98454.75;;;9.49;78.65
41515;BME280;27247;48.020;16.720;2023-04-01T02:11:18;98457.00;;;9.45;78.84
41515;BME280;27247;48.020;16.720;2023-04-01T02:15:32;98451.84;;;9.37;79.01
41515;BME280;27247;48.020;16.720;2023-04-01T02:19:53;98455.88;;;9.26;79.62
41515;BME280;27247;48.020;16.720;2023-04-01T02:24:10;98449.69;;;9.13;79.62
41515;BME280;27247;48.020;16.720;2023-04-01T02:28:23;98445.78;;;9.09;79.98
41515;BME280;27247;48.020;16.720;2023-04-01T02:32:35;98453.19;;;9.13;80.01
41515;BME280;27247;48.020;16.720;2023-04-01T02:36:48;98457.72;;;9.26;79.43
41515;BME280;27247;48.020;16.720;2023-04-01T02:41:00;98464.31;;;9.30;79.84
41515;BME280;27247;48.020;16.720;2023-04-01T02:45:13;98461.44;;;9.25;79.66
41515;BME280;27247;48.020;16.720;2023-04-01T02:49:23;98472.91;;;9.32;79.43
41515;BME280;27247;48.020;16.720;2023-04-01T02:53:34;98470.25;;;9.32;79.25
41515;BME280;27247;48.020;16.720;2023-04-01T02:57:44;98468.81;;;9.29;79.42
41515;BME280;27247;48.020;16.720;2023-04-01T03:01:55;98476.19;;;9.27;79.48
41515;BME280;27247;48.020;16.720;2023-04-01T03:06:11;98478.47;;;9.31;79.02
41515;BME280;27247;48.020;16.720;2023-04-01T03:10:21;98480.34;;;9.37;78.70
41515;BME280;27247;48.020;16.720;2023-04-01T03:14:32;98493.22;;;9.33;78.52
41515;BME280;27247;48.020;16.720;2023-04-01T03:18:42;98492.22;;;9.34;78.93
41515;BME280;27247;48.020;16.720;2023-04-01T03:22:53;98495.50;;;9.36;78.21
41515;BME280;27247;48.020;16.720;2023-04-01T03:27:04;98478.03;;;9.27;79.07
41515;BME280;27247;48.020;16.720;2023-04-01T03:31:14;98474.13;;;9.23;79.31
41515;BME280;27247;48.020;16.720;2023-04-01T03:35:26;98470.63;;;9.22;79.56
41515;BME280;27247;48.020;16.720;2023-04-01T03:39:37;98473.50;;;9.21;79.94
41515;BME280;27247;48.020;16.720;2023-04-01T03:43:47;98465.50;;;9.21;80.30
41515;BME280;27247;48.020;16.720;2023-04-01T03:47:57;98476.78;;;9.23;80.31
41515;BME280;27247;48.020;16.720;2023-04-01T03:52:10;98471.47;;;9.29;79.68
41515;BME280;27247;48.020;16.720;2023-04-01T03:56:20;98468.41;;;9.33;79.71
41515;BME280;27247;48.020;16.720;2023-04-01T04:00:31;98460.22;;;9.34;79.41
41515;BME280;27247;48.020;16.720;2023-04-01T04:04:42;98460.41;;;9.33;79.68
41515;BME280;27247;48.020;16.720;2023-04-01T04:08:53;98462.06;;;9.34;79.57
41515;BME280;27247;48.020;16.720;2023-04-01T04:13:03;98453.03;;;9.28;79.90
41515;BME280;27247;48.020;16.720;2023-04-01T04:17:13;98455.28;;;9.24;79.64
41515;BME280;27247;48.020;16.720;2023-04-01T04:21:26;98448.69;;;9.20;79.61
41515;BME280;27247;48.020;16.720;2023-04-01T04:25:36;98441.72;;;9.19;79.52
41515;BME280;27247;48.020;16.720;2023-04-01T04:29:46;98446.03;;;9.20;79.40
41515;BME280;27247;48.020;16.720;2023-04-01T04:33:59;98457.72;;;9.26;79.00
41515;BME280;27247;48.020;16.720;2023-04-01T04:38:10;98458.13;;;9.23;79.52
41515;BME280;27247;48.020;16.720;2023-04-01T04:42:21;98470.25;;;9.25;79.26
41515;BME280;27247;48.020;16.720;2023-04-01T04:46:31;98476.78;;;9.23;79.06
41515;BME280;27247;48.020;16.720;2023-04-01T04:50:42;98477.63;;;9.23;79.06
41515;BME280;27247;48.020;16.720;2023-04-01T04:54:52;98483.75;;;9.17;79.25
41515;BME280;27247;48.020;16.720;2023-04-01T04:59:03;98488.47;;;9.15;79.25
41515;BME280;27247;48.020;16.720;2023-04-01T05:03:14;98495.19;;;9.05;80.07
41515;BME280;27247;48.020;16.720;2023-04-01T05:07:24;98500.91;;;9.02;80.14
41515;BME280;27247;48.020;16.720;2023-04-01T05:11:35;98493.53;;;9.04;79.98
41515;BME280;27247;48.020;16.720;2023-04-01T05:15:45;98500.91;;;9.02;79.59
41515;BME280;27247;48.020;16.720;2023-04-01T05:19:55;98502.16;;;9.06;79.97
41515;BME280;27247;48.020;16.720;2023-04-01T05:24:09;98511.97;;;8.99;80.81
41515;BME280;27247;48.020;16.720;2023-04-01T05:28:20;98518.53;;;9.03;80.63
41515;BME280;27247;48.020;16.720;2023-04-01T05:32:31;98521.59;;;9.00;80.83
41515;BME280;27247;48.020;16.720;2023-04-01T05:36:42;98532.91;;;9.08;81.38
41515;BME280;27247;48.020;16.720;2023-04-01T05:40:59;98527.19;;;9.11;81.53
41515;BME280;27247;48.020;16.720;2023-04-01T05:45:09;98526.41;;;9.24;80.51
41515;BME280;27247;48.020;16.720;2023-04-01T05:49:20;98535.31;;;9.38;80.69
41515;BME280;27247;48.020;16.720;2023-04-01T05:53:30;98540.91;;;9.56;79.97
41515;BME280;27247;48.020;16.720;2023-04-01T05:57:41;98537.84;;;9.66;79.78
41515;BME280;27247;48.020;16.720;2023-04-01T06:01:51;98531.94;;;9.90;78.39
41515;BME280;27247;48.020;16.720;2023-04-01T06:06:02;98535.84;;;10.01;78.62
41515;BME280;27247;48.020;16.720;2023-04-01T06:10:18;98537.50;;;10.15;77.66
41515;BME280;27247;48.020;16.720;2023-04-01T06:19:09;98522.16;;;10.43;76.43
41515;BME280;27247;48.020;16.720;2023-04-01T06:37:20;98523.47;;;10.99;74.61
41515;BME280;27247;48.020;16.720;2023-04-01T06:51:16;98524.50;;;11.56;71.85
41515;BME280;27247;48.020;16.720;2023-04-01T06:55:43;98526.72;;;11.65;71.38
41515;BME280;27247;48.020;16.720;2023-04-01T06:59:59;98535.34;;;11.67;70.47
41515;BME280;27247;48.020;16.720;2023-04-01T07:04:23;98541.69;;;11.79;71.83
41515;BME280;27247;48.020;16.720;2023-04-01T07:08:38;98529.50;;;11.83;71.00
41515;BME280;27247;48.020;16.720;2023-04-01T07:12:56;98533.22;;;11.82;70.65
41515;BME280;27247;48.020;16.720;2023-04-01T07:17:13;98532.53;;;11.94;70.43
41515;BME280;27247;48.020;16.720;2023-04-01T07:21:29;98521.38;;;11.97;69.75
41515;BME280;27247;48.020;16.720;2023-04-01T07:25:44;98518.63;;;12.10;69.73
41515;BME280;27247;48.020;16.720;2023-04-01T07:29:57;98532.28;;;12.27;69.02
41515;BME280;27247;48.020;16.720;2023-04-01T07:52:56;98537.59;;;13.20;63.96
41515;BME280;27247;48.020;16.720;2023-04-01T07:57:34;98540.81;;;13.28;64.95
41515;BME280;27247;48.020;16.720;2023-04-01T08:15:00;98549.69;;;13.77;62.67
41515;BME280;27247;48.020;16.720;2023-04-01T08:20:32;98557.28;;;13.80;63.37
41515;BME280;27247;48.020;16.720;2023-04-01T08:24:31;98550.69;;;13.94;63.34
41515;BME280;27247;48.020;16.720;2023-04-01T08:28:46;98542.66;;;14.06;60.88
41515;BME280;27247;48.020;16.720;2023-04-01T08:33:11;98536.00;;;14.09;61.28
41515;BME280;27247;48.020;16.720;2023-04-01T08:37:28;98533.84;;;14.29;61.98
41515;BME280;27247;48.020;16.720;2023-04-01T08:46:10;98540.59;;;14.20;61.09
41515;BME280;27247;48.020;16.720;2023-04-01T09:04:25;98553.56;;;14.64;59.89
41515;BME280;27247;48.020;16.720;2023-04-01T09:08:59;98551.94;;;14.63;59.68
41515;BME280;27247;48.020;16.720;2023-04-01T09:17:50;98572.63;;;14.86;59.63
41515;BME280;27247;48.020;16.720;2023-04-01T09:22:17;98577.41;;;15.08;58.11
41515;BME280;27247;48.020;16.720;2023-04-01T09:26:52;98583.59;;;14.96;59.45
41515;BME280;27247;48.020;16.720;2023-04-01T09:40:41;98591.91;;;14.60;59.31
41515;BME280;27247;48.020;16.720;2023-04-01T09:45:17;98592.53;;;14.44;58.46
41515;BME280;27247;48.020;16.720;2023-04-01T09:54:24;98593.84;;;14.53;59.97
41515;BME280;27247;48.020;16.720;2023-04-01T10:08:26;98582.09;;;14.35;60.53
41515;BME280;27247;48.020;16.720;2023-04-01T10:21:52;98573.31;;;14.28;59.50
41515;BME280;27247;48.020;16.720;2023-04-01T11:43:01;98572.69;;;15.26;57.78
41515;BME280;27247;48.020;16.720;2023-04-01T11:47:40;98570.94;;;15.32;56.04
41515;BME280;27247;48.020;16.720;2023-04-01T11:56:30;98561.13;;;16.23;54.02
41515;BME280;27247;48.020;16.720;2023-04-01T12:05:34;98577.06;;;16.70;53.74
41515;BME280;27247;48.020;16.720;2023-04-01T12:14:48;98578.25;;;16.00;55.19
41515;BME280;27247;48.020;16.720;2023-04-01T12:23:48;98563.53;;;15.62;54.89
41515;BME280;27247;48.020;16.720;2023-04-01T12:28:18;98570.91;;;15.67;53.78
41515;BME280;27247;48.020;16.720;2023-04-01T12:32:45;98581.19;;;15.70;54.44
41515;BME280;27247;48.020;16.720;2023-04-01T12:38:10;98584.91;;;15.81;53.74
41515;BME280;27247;48.020;16.720;2023-04-01T12:42:13;98577.91;;;15.96;53.75
41515;BME280;27247;48.020;16.720;2023-04-01T12:46:32;98576.16;;;16.19;52.59
41515;BME280;27247;48.020;16.720;2023-04-01T12:55:43;98565.56;;;15.84;54.06
41515;BME280;27247;48.020;16.720;2023-04-01T13:45:19;98547.28;;;16.98;51.58
41515;BME280;27247;48.020;16.720;2023-04-01T14:02:56;98522.72;;;18.14;47.94
41515;BME280;27247;48.020;16.720;2023-04-01T14:20:59;98522.84;;;17.97;48.49
41515;BME280;27247;48.020;16.720;2023-04-01T14:30:05;98519.78;;;17.89;48.92
41515;BME280;27247;48.020;16.720;2023-04-01T14:43:47;98514.75;;;18.61;46.36
41515;BME280;27247;48.020;16.720;2023-04-01T14:52:35;98513.19;;;18.38;46.55
41515;BME280;27247;48.020;16.720;2023-04-01T14:56:50;98517.53;;;18.39;46.88
41515;BME280;27247;48.020;16.720;2023-04-01T15:05:39;98513.28;;;18.16;46.84
41515;BME280;27247;48.020;16.720;2023-04-01T15:10:18;98523.41;;;17.99;46.18
41515;BME280;27247;48.020;16.720;2023-04-01T15:19:19;98516.19;;;18.10;46.26
41515;BME280;27247;48.020;16.720;2023-04-01T15:32:45;98517.91;;;17.23;47.43
41515;BME280;27247;48.020;16.720;2023-04-01T15:41:35;98526.63;;;16.70;49.02
41515;BME280;27247;48.020;16.720;2023-04-01T15:46:12;98530.50;;;16.46;50.19
41515;BME280;27247;48.020;16.720;2023-04-01T15:59:39;98530.28;;;15.85;51.51
41515;BME280;27247;48.020;16.720;2023-04-01T16:13:24;98557.16;;;15.05;54.29
41515;BME280;27247;48.020;16.720;2023-04-01T16:17:46;98552.03;;;14.92;54.68
41515;BME280;27247;48.020;16.720;2023-04-01T16:22:08;98563.16;;;14.84;55.63
41515;BME280;27247;48.020;16.720;2023-04-01T16:26:37;98566.66;;;14.61;56.15
41515;BME280;27247;48.020;16.720;2023-04-01T16:39:44;98566.84;;;14.48;57.36
41515;BME280;27247;48.020;16.720;2023-04-01T16:44:24;98570.81;;;14.45;58.29
41515;BME280;27247;48.020;16.720;2023-04-01T16:53:00;98586.41;;;14.25;57.85
41515;BME280;27247;48.020;16.720;2023-04-01T16:57:19;98603.41;;;14.07;58.42
41515;BME280;27247;48.020;16.720;2023-04-01T17:01:44;98606.13;;;13.89;58.99
41515;BME280;27247;48.020;16.720;2023-04-01T17:11:09;98625.47;;;13.42;61.41
41515;BME280;27247;48.020;16.720;2023-04-01T17:15:33;98636.34;;;13.29;61.96
41515;BME280;27247;48.020;16.720;2023-04-01T17:19:56;98650.50;;;13.18;63.07
41515;BME280;27247;48.020;16.720;2023-04-01T17:41:49;98675.97;;;12.46;64.97
41515;BME280;27247;48.020;16.720;2023-04-01T17:46:21;98691.06;;;12.40;65.13
41515;BME280;27247;48.020;16.720;2023-04-01T17:51:09;98700.59;;;12.30;65.59
41515;BME280;27247;48.020;16.720;2023-04-01T18:05:19;98723.16;;;12.09;66.86
41515;BME280;27247;48.020;16.720;2023-04-01T18:22:38;98769.63;;;11.57;69.79
41515;BME280;27247;48.020;16.720;2023-04-01T18:27:15;98781.53;;;11.41;70.08
41515;BME280;27247;48.020;16.720;2023-04-01T18:31:36;98791.41;;;11.34;70.81
41515;BME280;27247;48.020;16.720;2023-04-01T18:35:58;98790.38;;;11.28;70.81
41515;BME280;27247;48.020;16.720;2023-04-01T18:40:32;98801.28;;;11.13;71.38
41515;BME280;27247;48.020;16.720;2023-04-01T18:44:56;98798.81;;;11.12;71.78
41515;BME280;27247;48.020;16.720;2023-04-01T18:53:58;98799.63;;;11.06;72.07
41515;BME280;27247;48.020;16.720;2023-04-01T19:02:48;98808.47;;;11.00;72.92
41515;BME280;27247;48.020;16.720;2023-04-01T19:08:12;98805.38;;;10.96;73.35
41515;BME280;27247;48.020;16.720;2023-04-01T19:12:42;98810.72;;;10.90;73.78
41515;BME280;27247;48.020;16.720;2023-04-01T19:21:42;98829.00;;;10.79;74.36
41515;BME280;27247;48.020;16.720;2023-04-01T19:25:58;98838.66;;;10.80;74.17
41515;BME280;27247;48.020;16.720;2023-04-01T19:39:36;98836.56;;;10.69;75.54
41515;BME280;27247;48.020;16.720;2023-04-01T19:52:52;98859.53;;;10.57;76.03
41515;BME280;27247;48.020;16.720;2023-04-01T20:02:26;98874.22;;;10.40;76.68
41515;BME280;27247;48.020;16.720;2023-04-01T20:15:34;98870.75;;;10.11;76.96
41515;BME280;27247;48.020;16.720;2023-04-01T20:24:23;98887.09;;;9.95;77.00
41515;BME280;27247;48.020;16.720;2023-04-01T20:37:32;98889.41;;;9.77;78.17
41515;BME280;27247;48.020;16.720;2023-04-01T20:41:55;98890.00;;;9.72;78.13
41515;BME280;27247;48.020;16.720;2023-04-01T20:46:23;98903.28;;;9.66;77.70
41515;BME280;27247;48.020;16.720;2023-04-01T21:07:50;98896.94;;;9.45;79.61
41515;BME280;27247;48.020;16.720;2023-04-01T21:17:02;98905.09;;;9.37;79.06
41515;BME280;27247;48.020;16.720;2023-04-01T21:30:23;98902.56;;;9.14;80.51
41515;BME280;27247;48.020;16.720;2023-04-01T21:34:49;98912.97;;;9.09;81.75
41515;BME280;27247;48.020;16.720;2023-04-01T22:09:52;98926.63;;;9.85;80.13
41515;BME280;27247;48.020;16.720;2023-04-01T22:14:09;98930.16;;;9.92;79.72
41515;BME280;27247;48.020;16.720;2023-04-01T22:18:38;98923.88;;;10.00;79.25
41515;BME280;27247;48.020;16.720;2023-04-01T22:23:26;98925.31;;;10.02;79.28
41515;BME280;27247;48.020;16.720;2023-04-01T22:27:49;98928.03;;;10.09;79.22
41515;BME280;27247;48.020;16.720;2023-04-01T22:32:10;98925.38;;;10.09;79.38
41515;BME280;27247;48.020;16.720;2023-04-01T22:40:51;98924.59;;;10.15;79.32
41515;BME280;27247;48.020;16.720;2023-04-01T22:49:45;98930.91;;;10.07;79.20
41515;BME280;27247;48.020;16.720;2023-04-01T22:58:30;98928.66;;;10.11;79.23
41515;BME280;27247;48.020;16.720;2023-04-01T23:07:29;98932.34;;;10.10;79.67
41515;BME280;27247;48.020;16.720;2023-04-01T23:11:47;98931.34;;;10.11;79.94
41515;BME280;27247;48.020;16.720;2023-04-01T23:16:01;98940.38;;;10.10;80.66
41515;BME280;27247;48.020;16.720;2023-04-01T23:20:52;98943.66;;;10.12;80.99
41515;BME280;27247;48.020;16.720;2023-04-01T23:25:42;98949.19;;;10.10;80.68
41515;BME280;27247;48.020;16.720;2023-04-01T23:29:53;98950.84;;;10.11;80.54
41515;BME280;27247;48.020;16.720;2023-04-01T23:38:25;98957.19;;;10.10;80.73
41515;BME280;27247;48.020;16.720;2023-04-01T23:42:40;98960.88;;;10.09;81.36
41515;BME280;27247;48.020;16.720;2023-04-01T23:46:51;98958.22;;;10.09;82.02
41515;BME280;27247;48.020;16.720;2023-04-01T23:51:02;98966.41;;;10.08;82.07
41515;BME280;27247;48.020;16.720;2023-04-01T23:55:28;98966.38;;;10.01;81.89
41515;BME280;27247;48.020;16.720;2023-04-01T23:59:40;98961.47;;;10.05;81.10
